Search for airport 
image banner adimage banner adimage banner ad
image banner ad

PN42 - Practice Football Field

Located in Indiana, United States

ICAO - PN42, IATA -

Data provided by Airmate  

General information

Coordinates: N40°37'30" W79°8'59"
Elevation is 1400 feet MSL.
Magnetic variation is -08° East
View others Airports in Pennsylvania

Operational data

Special qualification required
Current time UTC:
Current local time:
METAR: KIDI 132135Z AUTO 19005KT 10SM CLR 29/19 A2985 RMK A01
View NOTAMs / SUP AIP / TFR affecting this airport [VIEW]
Communications frequencies: [VIEW]

Runways:

Airport contact information

Address: Indiana United States

Satellite view of PN42